sensor_id;sensor_type;location;lat;lon;timestamp;P1;durP1;ratioP1;P2;durP2;ratioP2
29908;SDS011;36247;51.952;6.146;2023-07-31T00:00:38;7.45;;;5.97;;
29908;SDS011;36247;51.952;6.146;2023-07-31T00:03:03;8.70;;;6.35;;
29908;SDS011;36247;51.952;6.146;2023-07-31T00:05:30;8.48;;;6.93;;
29908;SDS011;36247;51.952;6.146;2023-07-31T00:07:55;9.13;;;7.95;;
29908;SDS011;36247;51.952;6.146;2023-07-31T00:10:21;8.57;;;7.30;;
29908;SDS011;36247;51.952;6.146;2023-07-31T00:12:47;7.00;;;6.13;;
29908;SDS011;36247;51.952;6.146;2023-07-31T00:15:13;6.63;;;5.57;;
29908;SDS011;36247;51.952;6.146;2023-07-31T00:17:43;6.22;;;5.63;;
29908;SDS011;36247;51.952;6.146;2023-07-31T00:20:08;5.55;;;4.80;;
29908;SDS011;36247;51.952;6.146;2023-07-31T00:22:38;6.35;;;4.55;;
29908;SDS011;36247;51.952;6.146;2023-07-31T00:25:08;5.82;;;4.63;;
29908;SDS011;36247;51.952;6.146;2023-07-31T00:27:34;6.03;;;5.38;;
29908;SDS011;36247;51.952;6.146;2023-07-31T00:29:59;4.90;;;4.40;;
29908;SDS011;36247;51.952;6.146;2023-07-31T00:32:28;5.15;;;4.65;;
29908;SDS011;36247;51.952;6.146;2023-07-31T00:34:53;5.13;;;4.63;;
29908;SDS011;36247;51.952;6.146;2023-07-31T00:37:19;6.50;;;4.25;;
29908;SDS011;36247;51.952;6.146;2023-07-31T00:39:44;5.82;;;4.07;;
29908;SDS011;36247;51.952;6.146;2023-07-31T00:42:12;4.50;;;4.10;;
29908;SDS011;36247;51.952;6.146;2023-07-31T00:44:38;6.38;;;4.13;;
29908;SDS011;36247;51.952;6.146;2023-07-31T00:47:03;4.75;;;4.22;;
29908;SDS011;36247;51.952;6.146;2023-07-31T00:49:30;5.22;;;4.43;;
29908;SDS011;36247;51.952;6.146;2023-07-31T00:51:55;5.07;;;4.15;;
29908;SDS011;36247;51.952;6.146;2023-07-31T00:54:25;7.63;;;4.53;;
29908;SDS011;36247;51.952;6.146;2023-07-31T00:56:51;6.60;;;4.10;;
29908;SDS011;36247;51.952;6.146;2023-07-31T00:59:20;8.65;;;5.30;;
29908;SDS011;36247;51.952;6.146;2023-07-31T01:01:46;12.23;;;6.65;;
29908;SDS011;36247;51.952;6.146;2023-07-31T01:04:13;10.10;;;5.97;;
29908;SDS011;36247;51.952;6.146;2023-07-31T01:06:43;14.98;;;6.82;;
29908;SDS011;36247;51.952;6.146;2023-07-31T01:09:20;15.23;;;6.97;;
29908;SDS011;36247;51.952;6.146;2023-07-31T01:11:53;22.23;;;8.85;;
29908;SDS011;36247;51.952;6.146;2023-07-31T01:14:21;21.75;;;9.60;;
29908;SDS011;36247;51.952;6.146;2023-07-31T01:16:46;29.45;;;10.63;;
29908;SDS011;36247;51.952;6.146;2023-07-31T01:19:14;28.85;;;11.35;;
29908;SDS011;36247;51.952;6.146;2023-07-31T01:24:40;36.80;;;12.73;;
29908;SDS011;36247;51.952;6.146;2023-07-31T01:27:31;34.40;;;11.20;;
29908;SDS011;36247;51.952;6.146;2023-07-31T01:30:10;39.83;;;14.15;;
29908;SDS011;36247;51.952;6.146;2023-07-31T01:35:13;31.08;;;13.35;;
29908;SDS011;36247;51.952;6.146;2023-07-31T01:37:41;31.25;;;12.02;;
29908;SDS011;36247;51.952;6.146;2023-07-31T01:40:09;33.55;;;11.73;;
29908;SDS011;36247;51.952;6.146;2023-07-31T01:42:36;37.03;;;12.23;;
29908;SDS011;36247;51.952;6.146;2023-07-31T01:45:02;31.10;;;11.23;;
29908;SDS011;36247;51.952;6.146;2023-07-31T01:47:28;31.88;;;12.02;;
29908;SDS011;36247;51.952;6.146;2023-07-31T01:49:53;35.40;;;11.93;;
29908;SDS011;36247;51.952;6.146;2023-07-31T01:52:19;34.97;;;13.02;;
29908;SDS011;36247;51.952;6.146;2023-07-31T01:54:44;33.97;;;11.38;;
29908;SDS011;36247;51.952;6.146;2023-07-31T01:57:10;27.63;;;11.82;;
29908;SDS011;36247;51.952;6.146;2023-07-31T01:59:38;35.28;;;12.82;;
29908;SDS011;36247;51.952;6.146;2023-07-31T02:02:04;21.88;;;10.30;;
29908;SDS011;36247;51.952;6.146;2023-07-31T02:04:30;29.98;;;11.65;;
29908;SDS011;36247;51.952;6.146;2023-07-31T02:06:55;31.50;;;11.90;;
29908;SDS011;36247;51.952;6.146;2023-07-31T02:09:21;29.40;;;12.32;;
29908;SDS011;36247;51.952;6.146;2023-07-31T02:11:47;27.67;;;11.85;;
29908;SDS011;36247;51.952;6.146;2023-07-31T02:14:13;29.17;;;10.50;;
29908;SDS011;36247;51.952;6.146;2023-07-31T02:16:38;29.30;;;10.63;;
29908;SDS011;36247;51.952;6.146;2023-07-31T02:19:08;27.10;;;10.82;;
29908;SDS011;36247;51.952;6.146;2023-07-31T02:21:34;32.25;;;11.38;;
29908;SDS011;36247;51.952;6.146;2023-07-31T02:24:00;33.17;;;11.55;;
29908;SDS011;36247;51.952;6.146;2023-07-31T02:26:25;30.05;;;11.80;;
29908;SDS011;36247;51.952;6.146;2023-07-31T02:28:51;25.33;;;10.38;;
29908;SDS011;36247;51.952;6.146;2023-07-31T02:31:16;27.17;;;10.25;;
29908;SDS011;36247;51.952;6.146;2023-07-31T02:33:43;29.77;;;11.70;;
29908;SDS011;36247;51.952;6.146;2023-07-31T02:36:09;29.85;;;11.43;;
29908;SDS011;36247;51.952;6.146;2023-07-31T02:38:38;22.77;;;10.30;;
29908;SDS011;36247;51.952;6.146;2023-07-31T02:41:07;29.27;;;10.52;;
29908;SDS011;36247;51.952;6.146;2023-07-31T02:43:33;25.15;;;9.75;;
29908;SDS011;36247;51.952;6.146;2023-07-31T02:45:59;29.88;;;11.10;;
29908;SDS011;36247;51.952;6.146;2023-07-31T02:48:25;25.63;;;10.13;;
29908;SDS011;36247;51.952;6.146;2023-07-31T02:50:51;26.40;;;10.00;;
29908;SDS011;36247;51.952;6.146;2023-07-31T02:53:16;27.70;;;10.45;;
29908;SDS011;36247;51.952;6.146;2023-07-31T02:55:44;27.88;;;11.35;;
29908;SDS011;36247;51.952;6.146;2023-07-31T02:58:13;18.77;;;9.27;;
29908;SDS011;36247;51.952;6.146;2023-07-31T03:00:43;27.73;;;10.05;;
29908;SDS011;36247;51.952;6.146;2023-07-31T03:03:10;23.17;;;9.95;;
29908;SDS011;36247;51.952;6.146;2023-07-31T03:05:38;25.95;;;9.75;;
29908;SDS011;36247;51.952;6.146;2023-07-31T03:08:10;30.20;;;10.02;;
29908;SDS011;36247;51.952;6.146;2023-07-31T03:10:38;19.65;;;10.40;;
29908;SDS011;36247;51.952;6.146;2023-07-31T03:13:04;24.98;;;11.73;;
29908;SDS011;36247;51.952;6.146;2023-07-31T03:15:29;25.05;;;10.23;;
29908;SDS011;36247;51.952;6.146;2023-07-31T03:17:55;30.52;;;11.25;;
29908;SDS011;36247;51.952;6.146;2023-07-31T03:20:21;29.83;;;10.77;;
29908;SDS011;36247;51.952;6.146;2023-07-31T03:22:46;29.08;;;9.88;;
29908;SDS011;36247;51.952;6.146;2023-07-31T03:25:12;23.42;;;8.85;;
29908;SDS011;36247;51.952;6.146;2023-07-31T03:27:40;26.08;;;9.32;;
29908;SDS011;36247;51.952;6.146;2023-07-31T03:30:08;20.63;;;8.70;;
29908;SDS011;36247;51.952;6.146;2023-07-31T03:32:34;22.65;;;9.13;;
29908;SDS011;36247;51.952;6.146;2023-07-31T03:34:59;24.10;;;8.93;;
29908;SDS011;36247;51.952;6.146;2023-07-31T03:37:25;24.63;;;9.13;;
29908;SDS011;36247;51.952;6.146;2023-07-31T03:39:52;25.05;;;9.55;;
29908;SDS011;36247;51.952;6.146;2023-07-31T03:42:17;23.67;;;8.65;;
29908;SDS011;36247;51.952;6.146;2023-07-31T03:44:43;31.08;;;9.40;;
29908;SDS011;36247;51.952;6.146;2023-07-31T03:47:10;28.98;;;8.43;;
29908;SDS011;36247;51.952;6.146;2023-07-31T03:49:38;29.75;;;9.63;;
29908;SDS011;36247;51.952;6.146;2023-07-31T03:52:08;22.90;;;8.10;;
29908;SDS011;36247;51.952;6.146;2023-07-31T03:54:34;21.98;;;8.18;;
29908;SDS011;36247;51.952;6.146;2023-07-31T03:56:59;24.83;;;9.45;;
29908;SDS011;36247;51.952;6.146;2023-07-31T03:59:25;22.60;;;7.72;;
29908;SDS011;36247;51.952;6.146;2023-07-31T04:01:51;20.45;;;8.95;;
29908;SDS011;36247;51.952;6.146;2023-07-31T04:04:17;18.95;;;7.45;;
29908;SDS011;36247;51.952;6.146;2023-07-31T04:06:43;20.58;;;8.70;;
29908;SDS011;36247;51.952;6.146;2023-07-31T04:09:09;25.50;;;9.00;;
29908;SDS011;36247;51.952;6.146;2023-07-31T04:11:34;20.92;;;8.10;;
29908;SDS011;36247;51.952;6.146;2023-07-31T04:14:00;26.23;;;8.82;;
29908;SDS011;36247;51.952;6.146;2023-07-31T04:16:25;21.92;;;8.15;;
29908;SDS011;36247;51.952;6.146;2023-07-31T04:18:51;19.08;;;7.57;;
29908;SDS011;36247;51.952;6.146;2023-07-31T04:21:16;20.77;;;9.07;;
29908;SDS011;36247;51.952;6.146;2023-07-31T04:23:43;16.92;;;8.00;;
29908;SDS011;36247;51.952;6.146;2023-07-31T04:26:08;25.15;;;7.22;;
29908;SDS011;36247;51.952;6.146;2023-07-31T04:28:34;30.80;;;10.00;;
29908;SDS011;36247;51.952;6.146;2023-07-31T04:30:59;25.05;;;7.93;;
29908;SDS011;36247;51.952;6.146;2023-07-31T04:33:25;20.83;;;8.60;;
29908;SDS011;36247;51.952;6.146;2023-07-31T04:35:51;21.17;;;9.15;;
29908;SDS011;36247;51.952;6.146;2023-07-31T04:38:21;22.75;;;9.15;;
29908;SDS011;36247;51.952;6.146;2023-07-31T04:40:47;18.25;;;6.95;;
29908;SDS011;36247;51.952;6.146;2023-07-31T04:43:13;20.83;;;9.27;;
29908;SDS011;36247;51.952;6.146;2023-07-31T04:45:42;21.50;;;7.88;;
29908;SDS011;36247;51.952;6.146;2023-07-31T04:48:13;19.83;;;8.65;;
29908;SDS011;36247;51.952;6.146;2023-07-31T04:50:42;21.63;;;7.40;;
29908;SDS011;36247;51.952;6.146;2023-07-31T04:53:09;25.90;;;8.82;;
29908;SDS011;36247;51.952;6.146;2023-07-31T04:55:36;21.98;;;7.40;;
29908;SDS011;36247;51.952;6.146;2023-07-31T04:58:02;20.65;;;7.55;;
29908;SDS011;36247;51.952;6.146;2023-07-31T05:00:28;28.02;;;8.68;;
29908;SDS011;36247;51.952;6.146;2023-07-31T05:02:53;28.63;;;8.80;;
29908;SDS011;36247;51.952;6.146;2023-07-31T05:05:19;23.85;;;9.15;;
29908;SDS011;36247;51.952;6.146;2023-07-31T05:07:44;23.23;;;9.15;;
29908;SDS011;36247;51.952;6.146;2023-07-31T05:10:11;23.50;;;7.47;;
29908;SDS011;36247;51.952;6.146;2023-07-31T05:12:38;31.60;;;9.25;;
29908;SDS011;36247;51.952;6.146;2023-07-31T05:15:09;20.33;;;8.57;;
29908;SDS011;36247;51.952;6.146;2023-07-31T05:17:38;21.30;;;7.53;;
29908;SDS011;36247;51.952;6.146;2023-07-31T05:20:04;23.23;;;8.65;;
29908;SDS011;36247;51.952;6.146;2023-07-31T05:22:30;28.05;;;8.40;;
29908;SDS011;36247;51.952;6.146;2023-07-31T05:24:55;18.25;;;7.00;;
29908;SDS011;36247;51.952;6.146;2023-07-31T05:27:21;24.17;;;8.65;;
29908;SDS011;36247;51.952;6.146;2023-07-31T05:29:46;23.15;;;8.07;;
29908;SDS011;36247;51.952;6.146;2023-07-31T05:32:13;22.45;;;8.70;;
29908;SDS011;36247;51.952;6.146;2023-07-31T05:34:38;20.27;;;7.50;;
29908;SDS011;36247;51.952;6.146;2023-07-31T05:37:09;23.95;;;7.70;;
29908;SDS011;36247;51.952;6.146;2023-07-31T05:39:41;23.67;;;8.02;;
29908;SDS011;36247;51.952;6.146;2023-07-31T05:42:09;19.52;;;7.88;;
29908;SDS011;36247;51.952;6.146;2023-07-31T05:44:34;21.70;;;8.15;;
29908;SDS011;36247;51.952;6.146;2023-07-31T05:47:00;27.42;;;9.27;;
29908;SDS011;36247;51.952;6.146;2023-07-31T05:49:26;16.23;;;7.30;;
29908;SDS011;36247;51.952;6.146;2023-07-31T05:51:51;22.45;;;7.13;;
29908;SDS011;36247;51.952;6.146;2023-07-31T05:54:17;23.42;;;8.52;;
29908;SDS011;36247;51.952;6.146;2023-07-31T05:56:43;19.38;;;8.02;;
29908;SDS011;36247;51.952;6.146;2023-07-31T05:59:09;15.75;;;8.25;;
29908;SDS011;36247;51.952;6.146;2023-07-31T06:01:38;15.52;;;7.45;;
29908;SDS011;36247;51.952;6.146;2023-07-31T06:04:20;18.55;;;8.05;;
29908;SDS011;36247;51.952;6.146;2023-07-31T06:06:46;19.38;;;7.57;;
29908;SDS011;36247;51.952;6.146;2023-07-31T06:09:12;23.00;;;8.15;;
29908;SDS011;36247;51.952;6.146;2023-07-31T06:11:41;17.98;;;8.55;;
29908;SDS011;36247;51.952;6.146;2023-07-31T06:14:08;19.20;;;7.93;;
29908;SDS011;36247;51.952;6.146;2023-07-31T06:16:33;18.83;;;8.65;;
29908;SDS011;36247;51.952;6.146;2023-07-31T06:19:00;23.15;;;8.48;;
29908;SDS011;36247;51.952;6.146;2023-07-31T06:21:25;14.88;;;7.20;;
29908;SDS011;36247;51.952;6.146;2023-07-31T06:23:51;25.77;;;8.38;;
29908;SDS011;36247;51.952;6.146;2023-07-31T06:26:17;24.77;;;9.32;;
29908;SDS011;36247;51.952;6.146;2023-07-31T06:28:42;17.95;;;9.02;;
29908;SDS011;36247;51.952;6.146;2023-07-31T06:31:08;22.27;;;9.77;;
29908;SDS011;36247;51.952;6.146;2023-07-31T06:33:34;23.60;;;8.15;;
29908;SDS011;36247;51.952;6.146;2023-07-31T06:36:00;17.00;;;8.00;;
29908;SDS011;36247;51.952;6.146;2023-07-31T06:38:26;21.52;;;7.57;;
29908;SDS011;36247;51.952;6.146;2023-07-31T06:40:52;23.17;;;7.93;;
29908;SDS011;36247;51.952;6.146;2023-07-31T06:43:18;17.77;;;7.55;;
29908;SDS011;36247;51.952;6.146;2023-07-31T06:45:44;24.10;;;8.73;;
29908;SDS011;36247;51.952;6.146;2023-07-31T06:48:12;20.98;;;9.40;;
29908;SDS011;36247;51.952;6.146;2023-07-31T06:50:38;17.77;;;8.05;;
29908;SDS011;36247;51.952;6.146;2023-07-31T06:53:08;17.40;;;7.88;;
29908;SDS011;36247;51.952;6.146;2023-07-31T06:55:34;17.15;;;8.18;;
29908;SDS011;36247;51.952;6.146;2023-07-31T06:58:00;20.13;;;7.70;;
29908;SDS011;36247;51.952;6.146;2023-07-31T07:00:25;14.70;;;6.25;;
29908;SDS011;36247;51.952;6.146;2023-07-31T07:02:52;12.23;;;6.32;;
29908;SDS011;36247;51.952;6.146;2023-07-31T07:05:17;14.32;;;5.97;;
29908;SDS011;36247;51.952;6.146;2023-07-31T07:07:44;13.90;;;6.88;;
29908;SDS011;36247;51.952;6.146;2023-07-31T07:10:13;11.32;;;5.55;;
29908;SDS011;36247;51.952;6.146;2023-07-31T07:12:38;10.85;;;4.90;;
29908;SDS011;36247;51.952;6.146;2023-07-31T07:15:08;8.98;;;5.00;;
29908;SDS011;36247;51.952;6.146;2023-07-31T07:17:34;8.63;;;4.60;;
29908;SDS011;36247;51.952;6.146;2023-07-31T07:20:00;7.57;;;3.97;;
29908;SDS011;36247;51.952;6.146;2023-07-31T07:22:26;7.40;;;3.95;;
29908;SDS011;36247;51.952;6.146;2023-07-31T07:24:52;8.88;;;3.60;;
29908;SDS011;36247;51.952;6.146;2023-07-31T07:27:18;6.40;;;3.60;;
29908;SDS011;36247;51.952;6.146;2023-07-31T07:29:45;5.80;;;3.13;;
29908;SDS011;36247;51.952;6.146;2023-07-31T07:32:13;5.60;;;3.03;;
29908;SDS011;36247;51.952;6.146;2023-07-31T07:34:38;4.68;;;3.53;;
29908;SDS011;36247;51.952;6.146;2023-07-31T07:37:09;6.43;;;3.50;;
29908;SDS011;36247;51.952;6.146;2023-07-31T07:39:36;8.07;;;3.20;;
29908;SDS011;36247;51.952;6.146;2023-07-31T07:42:01;3.63;;;2.83;;
29908;SDS011;36247;51.952;6.146;2023-07-31T07:44:27;4.65;;;3.10;;
29908;SDS011;36247;51.952;6.146;2023-07-31T07:46:52;5.00;;;2.85;;
29908;SDS011;36247;51.952;6.146;2023-07-31T07:49:18;4.40;;;3.58;;
29908;SDS011;36247;51.952;6.146;2023-07-31T07:51:43;3.67;;;3.05;;
29908;SDS011;36247;51.952;6.146;2023-07-31T07:54:11;7.50;;;3.00;;
29908;SDS011;36247;51.952;6.146;2023-07-31T07:56:39;2.60;;;2.35;;
29908;SDS011;36247;51.952;6.146;2023-07-31T07:59:10;3.83;;;2.58;;
29908;SDS011;36247;51.952;6.146;2023-07-31T08:01:38;4.00;;;2.95;;
29908;SDS011;36247;51.952;6.146;2023-07-31T08:04:09;3.15;;;2.80;;
29908;SDS011;36247;51.952;6.146;2023-07-31T08:06:34;4.65;;;3.30;;
29908;SDS011;36247;51.952;6.146;2023-07-31T08:09:00;3.28;;;2.80;;
29908;SDS011;36247;51.952;6.146;2023-07-31T08:11:30;3.75;;;2.92;;
29908;SDS011;36247;51.952;6.146;2023-07-31T08:13:56;5.00;;;3.22;;
29908;SDS011;36247;51.952;6.146;2023-07-31T08:16:22;3.55;;;3.20;;
29908;SDS011;36247;51.952;6.146;2023-07-31T08:18:47;6.35;;;3.60;;
29908;SDS011;36247;51.952;6.146;2023-07-31T08:21:14;4.53;;;3.42;;
29908;SDS011;36247;51.952;6.146;2023-07-31T08:23:42;5.05;;;3.40;;
29908;SDS011;36247;51.952;6.146;2023-07-31T08:26:15;4.75;;;3.58;;
29908;SDS011;36247;51.952;6.146;2023-07-31T08:28:44;4.40;;;3.40;;
29908;SDS011;36247;51.952;6.146;2023-07-31T08:31:10;4.82;;;3.40;;
29908;SDS011;36247;51.952;6.146;2023-07-31T08:33:39;4.47;;;3.83;;
29908;SDS011;36247;51.952;6.146;2023-07-31T08:36:10;6.05;;;4.18;;
29908;SDS011;36247;51.952;6.146;2023-07-31T08:38:41;5.38;;;4.35;;
29908;SDS011;36247;51.952;6.146;2023-07-31T08:41:09;5.22;;;4.07;;
29908;SDS011;36247;51.952;6.146;2023-07-31T08:43:34;4.53;;;4.07;;
29908;SDS011;36247;51.952;6.146;2023-07-31T08:46:01;4.30;;;3.67;;
29908;SDS011;36247;51.952;6.146;2023-07-31T08:48:27;4.50;;;3.72;;
29908;SDS011;36247;51.952;6.146;2023-07-31T08:50:54;5.47;;;4.00;;
29908;SDS011;36247;51.952;6.146;2023-07-31T08:53:19;4.30;;;3.75;;
29908;SDS011;36247;51.952;6.146;2023-07-31T08:55:45;7.15;;;4.30;;
29908;SDS011;36247;51.952;6.146;2023-07-31T08:58:17;4.63;;;3.90;;
29908;SDS011;36247;51.952;6.146;2023-07-31T09:00:44;4.57;;;4.15;;
29908;SDS011;36247;51.952;6.146;2023-07-31T09:03:16;7.85;;;4.63;;
29908;SDS011;36247;51.952;6.146;2023-07-31T09:05:44;4.65;;;4.15;;
29908;SDS011;36247;51.952;6.146;2023-07-31T09:08:13;5.38;;;4.18;;
29908;SDS011;36247;51.952;6.146;2023-07-31T09:10:44;6.22;;;4.38;;
29908;SDS011;36247;51.952;6.146;2023-07-31T09:13:13;6.50;;;4.78;;
29908;SDS011;36247;51.952;6.146;2023-07-31T09:15:42;5.95;;;4.70;;
29908;SDS011;36247;51.952;6.146;2023-07-31T09:18:13;7.18;;;4.28;;
29908;SDS011;36247;51.952;6.146;2023-07-31T09:20:44;6.13;;;5.20;;
29908;SDS011;36247;51.952;6.146;2023-07-31T09:23:11;6.82;;;5.50;;
29908;SDS011;36247;51.952;6.146;2023-07-31T09:25:45;6.03;;;4.82;;
29908;SDS011;36247;51.952;6.146;2023-07-31T09:28:12;5.00;;;3.85;;
29908;SDS011;36247;51.952;6.146;2023-07-31T09:30:46;7.38;;;4.70;;
29908;SDS011;36247;51.952;6.146;2023-07-31T09:33:16;9.35;;;4.95;;
29908;SDS011;36247;51.952;6.146;2023-07-31T09:35:43;5.47;;;4.85;;
29908;SDS011;36247;51.952;6.146;2023-07-31T09:38:10;7.25;;;4.75;;
29908;SDS011;36247;51.952;6.146;2023-07-31T09:40:45;6.55;;;4.88;;
29908;SDS011;36247;51.952;6.146;2023-07-31T09:43:14;5.97;;;4.82;;
29908;SDS011;36247;51.952;6.146;2023-07-31T09:45:44;6.43;;;5.82;;
29908;SDS011;36247;51.952;6.146;2023-07-31T09:48:14;6.97;;;5.15;;
29908;SDS011;36247;51.952;6.146;2023-07-31T09:50:44;6.63;;;5.13;;
29908;SDS011;36247;51.952;6.146;2023-07-31T09:53:13;7.07;;;5.15;;
29908;SDS011;36247;51.952;6.146;2023-07-31T09:55:43;7.20;;;5.32;;
29908;SDS011;36247;51.952;6.146;2023-07-31T09:58:10;6.78;;;5.28;;
29908;SDS011;36247;51.952;6.146;2023-07-31T10:00:38;10.63;;;5.80;;
29908;SDS011;36247;51.952;6.146;2023-07-31T10:03:09;8.18;;;6.25;;
29908;SDS011;36247;51.952;6.146;2023-07-31T10:05:45;8.05;;;6.00;;
29908;SDS011;36247;51.952;6.146;2023-07-31T10:08:16;9.52;;;6.78;;
29908;SDS011;36247;51.952;6.146;2023-07-31T10:10:45;10.13;;;7.10;;
29908;SDS011;36247;51.952;6.146;2023-07-31T10:13:13;9.35;;;7.43;;
29908;SDS011;36247;51.952;6.146;2023-07-31T10:15:41;12.57;;;8.52;;
29908;SDS011;36247;51.952;6.146;2023-07-31T10:18:17;9.30;;;7.88;;
29908;SDS011;36247;51.952;6.146;2023-07-31T10:20:44;11.52;;;7.72;;
29908;SDS011;36247;51.952;6.146;2023-07-31T10:23:18;9.75;;;8.57;;
29908;SDS011;36247;51.952;6.146;2023-07-31T10:25:43;12.73;;;7.93;;
29908;SDS011;36247;51.952;6.146;2023-07-31T10:28:11;10.13;;;8.35;;
29908;SDS011;36247;51.952;6.146;2023-07-31T10:30:43;10.75;;;8.25;;
29908;SDS011;36247;51.952;6.146;2023-07-31T10:33:13;14.10;;;8.32;;
29908;SDS011;36247;51.952;6.146;2023-07-31T10:35:43;14.50;;;8.93;;
29908;SDS011;36247;51.952;6.146;2023-07-31T10:38:10;11.30;;;8.65;;
29908;SDS011;36247;51.952;6.146;2023-07-31T10:40:45;14.00;;;9.02;;
29908;SDS011;36247;51.952;6.146;2023-07-31T10:43:25;16.17;;;9.95;;
29908;SDS011;36247;51.952;6.146;2023-07-31T10:45:52;12.93;;;9.40;;
29908;SDS011;36247;51.952;6.146;2023-07-31T10:48:18;16.35;;;10.52;;
29908;SDS011;36247;51.952;6.146;2023-07-31T10:51:06;12.02;;;10.30;;
29908;SDS011;36247;51.952;6.146;2023-07-31T10:53:34;11.52;;;9.50;;
29908;SDS011;36247;51.952;6.146;2023-07-31T10:56:02;14.48;;;10.02;;
29908;SDS011;36247;51.952;6.146;2023-07-31T10:58:30;15.82;;;9.45;;
29908;SDS011;36247;51.952;6.146;2023-07-31T11:01:01;14.90;;;9.65;;
29908;SDS011;36247;51.952;6.146;2023-07-31T11:03:47;13.57;;;9.43;;
29908;SDS011;36247;51.952;6.146;2023-07-31T11:06:17;13.85;;;9.63;;
29908;SDS011;36247;51.952;6.146;2023-07-31T11:08:50;14.65;;;8.82;;
29908;SDS011;36247;51.952;6.146;2023-07-31T11:11:17;14.00;;;8.68;;
29908;SDS011;36247;51.952;6.146;2023-07-31T11:13:47;15.55;;;9.00;;
29908;SDS011;36247;51.952;6.146;2023-07-31T11:16:20;13.43;;;9.57;;
29908;SDS011;36247;51.952;6.146;2023-07-31T11:18:48;14.50;;;8.68;;
29908;SDS011;36247;51.952;6.146;2023-07-31T11:21:18;13.90;;;9.45;;
29908;SDS011;36247;51.952;6.146;2023-07-31T11:23:49;12.98;;;8.52;;
29908;SDS011;36247;51.952;6.146;2023-07-31T11:26:17;12.65;;;8.93;;
29908;SDS011;36247;51.952;6.146;2023-07-31T11:28:45;10.93;;;7.97;;
29908;SDS011;36247;51.952;6.146;2023-07-31T11:31:13;13.25;;;8.27;;
29908;SDS011;36247;51.952;6.146;2023-07-31T11:33:41;12.55;;;8.05;;
29908;SDS011;36247;51.952;6.146;2023-07-31T11:36:15;12.02;;;7.88;;
29908;SDS011;36247;51.952;6.146;2023-07-31T11:38:43;12.50;;;8.48;;
29908;SDS011;36247;51.952;6.146;2023-07-31T11:41:09;12.20;;;8.73;;
29908;SDS011;36247;51.952;6.146;2023-07-31T11:43:34;14.57;;;8.68;;
29908;SDS011;36247;51.952;6.146;2023-07-31T11:46:02;11.93;;;8.48;;
29908;SDS011;36247;51.952;6.146;2023-07-31T11:48:33;14.05;;;8.90;;
29908;SDS011;36247;51.952;6.146;2023-07-31T11:53:32;14.32;;;8.95;;
29908;SDS011;36247;51.952;6.146;2023-07-31T11:56:02;14.40;;;8.38;;
29908;SDS011;36247;51.952;6.146;2023-07-31T11:58:32;15.50;;;7.88;;
29908;SDS011;36247;51.952;6.146;2023-07-31T12:01:00;11.65;;;8.57;;
29908;SDS011;36247;51.952;6.146;2023-07-31T12:03:26;10.02;;;8.43;;
29908;SDS011;36247;51.952;6.146;2023-07-31T12:05:53;11.80;;;8.02;;
29908;SDS011;36247;51.952;6.146;2023-07-31T12:08:20;11.73;;;7.00;;
29908;SDS011;36247;51.952;6.146;2023-07-31T12:10:47;11.32;;;7.03;;
29908;SDS011;36247;51.952;6.146;2023-07-31T12:13:23;14.00;;;8.10;;
29908;SDS011;36247;51.952;6.146;2023-07-31T12:15:53;11.82;;;7.00;;
29908;SDS011;36247;51.952;6.146;2023-07-31T12:18:21;9.07;;;7.30;;
29908;SDS011;36247;51.952;6.146;2023-07-31T12:20:48;10.48;;;7.25;;
29908;SDS011;36247;51.952;6.146;2023-07-31T12:23:19;10.32;;;7.28;;
29908;SDS011;36247;51.952;6.146;2023-07-31T12:28:37;10.98;;;6.95;;
29908;SDS011;36247;51.952;6.146;2023-07-31T12:36:11;9.07;;;7.05;;
29908;SDS011;36247;51.952;6.146;2023-07-31T12:38:45;13.23;;;7.22;;
29908;SDS011;36247;51.952;6.146;2023-07-31T12:41:17;10.15;;;7.55;;
29908;SDS011;36247;51.952;6.146;2023-07-31T12:43:46;11.40;;;7.03;;
29908;SDS011;36247;51.952;6.146;2023-07-31T12:46:13;11.80;;;7.78;;
29908;SDS011;36247;51.952;6.146;2023-07-31T12:48:43;12.07;;;8.25;;
29908;SDS011;36247;51.952;6.146;2023-07-31T12:53:46;12.68;;;8.18;;
29908;SDS011;36247;51.952;6.146;2023-07-31T12:56:12;13.88;;;9.10;;
29908;SDS011;36247;51.952;6.146;2023-07-31T12:58:38;15.95;;;8.75;;
29908;SDS011;36247;51.952;6.146;2023-07-31T13:01:08;11.63;;;8.45;;
29908;SDS011;36247;51.952;6.146;2023-07-31T13:03:33;10.77;;;7.63;;
29908;SDS011;36247;51.952;6.146;2023-07-31T13:06:00;12.07;;;7.57;;
29908;SDS011;36247;51.952;6.146;2023-07-31T13:08:26;10.15;;;6.93;;
29908;SDS011;36247;51.952;6.146;2023-07-31T13:10:52;11.20;;;7.68;;
29908;SDS011;36247;51.952;6.146;2023-07-31T13:13:18;9.82;;;7.43;;
29908;SDS011;36247;51.952;6.146;2023-07-31T13:15:44;10.82;;;7.03;;
29908;SDS011;36247;51.952;6.146;2023-07-31T13:18:12;10.40;;;7.68;;
29908;SDS011;36247;51.952;6.146;2023-07-31T13:20:43;13.15;;;7.40;;
29908;SDS011;36247;51.952;6.146;2023-07-31T13:23:09;9.77;;;7.30;;
29908;SDS011;36247;51.952;6.146;2023-07-31T13:25:42;8.25;;;6.85;;
29908;SDS011;36247;51.952;6.146;2023-07-31T13:28:09;11.18;;;6.45;;
29908;SDS011;36247;51.952;6.146;2023-07-31T13:30:47;10.13;;;6.07;;
29908;SDS011;36247;51.952;6.146;2023-07-31T13:33:13;11.80;;;6.85;;
29908;SDS011;36247;51.952;6.146;2023-07-31T13:35:43;10.07;;;6.10;;
29908;SDS011;36247;51.952;6.146;2023-07-31T13:38:08;11.75;;;7.05;;
29908;SDS011;36247;51.952;6.146;2023-07-31T13:40:34;10.65;;;7.07;;
29908;SDS011;36247;51.952;6.146;2023-07-31T13:43:00;10.98;;;6.35;;
29908;SDS011;36247;51.952;6.146;2023-07-31T13:45:25;10.10;;;6.28;;
29908;SDS011;36247;51.952;6.146;2023-07-31T13:47:51;9.30;;;6.47;;
29908;SDS011;36247;51.952;6.146;2023-07-31T13:50:17;8.05;;;5.88;;
29908;SDS011;36247;51.952;6.146;2023-07-31T13:52:45;8.85;;;6.97;;
29908;SDS011;36247;51.952;6.146;2023-07-31T13:55:13;9.52;;;6.80;;
29908;SDS011;36247;51.952;6.146;2023-07-31T13:57:40;8.65;;;6.95;;
29908;SDS011;36247;51.952;6.146;2023-07-31T14:00:09;11.23;;;6.55;;
29908;SDS011;36247;51.952;6.146;2023-07-31T14:02:43;9.13;;;6.55;;
29908;SDS011;36247;51.952;6.146;2023-07-31T14:05:10;7.53;;;6.47;;
29908;SDS011;36247;51.952;6.146;2023-07-31T14:07:44;8.88;;;6.43;;
29908;SDS011;36247;51.952;6.146;2023-07-31T14:10:13;9.50;;;6.38;;
29908;SDS011;36247;51.952;6.146;2023-07-31T14:12:49;9.13;;;6.93;;
29908;SDS011;36247;51.952;6.146;2023-07-31T14:15:18;10.40;;;7.18;;
29908;SDS011;36247;51.952;6.146;2023-07-31T14:17:46;11.35;;;7.57;;
29908;SDS011;36247;51.952;6.146;2023-07-31T14:20:13;10.73;;;6.90;;
29908;SDS011;36247;51.952;6.146;2023-07-31T14:22:44;10.77;;;7.78;;
29908;SDS011;36247;51.952;6.146;2023-07-31T14:25:13;12.52;;;7.43;;
29908;SDS011;36247;51.952;6.146;2023-07-31T14:27:41;14.90;;;7.47;;
29908;SDS011;36247;51.952;6.146;2023-07-31T14:30:09;11.60;;;7.20;;
29908;SDS011;36247;51.952;6.146;2023-07-31T14:32:35;15.65;;;8.93;;
29908;SDS011;36247;51.952;6.146;2023-07-31T14:35:02;24.88;;;8.10;;
29908;SDS011;36247;51.952;6.146;2023-07-31T14:37:36;12.20;;;7.32;;
29908;SDS011;36247;51.952;6.146;2023-07-31T14:40:04;12.13;;;7.30;;
29908;SDS011;36247;51.952;6.146;2023-07-31T14:42:30;11.35;;;8.00;;
29908;SDS011;36247;51.952;6.146;2023-07-31T14:44:59;15.88;;;7.82;;
29908;SDS011;36247;51.952;6.146;2023-07-31T14:47:25;15.20;;;7.68;;
29908;SDS011;36247;51.952;6.146;2023-07-31T14:49:51;13.95;;;7.93;;
29908;SDS011;36247;51.952;6.146;2023-07-31T14:52:17;13.98;;;8.25;;
29908;SDS011;36247;51.952;6.146;2023-07-31T14:54:44;15.60;;;8.73;;
29908;SDS011;36247;51.952;6.146;2023-07-31T14:57:19;16.63;;;9.40;;